Time;durP1;ratioP1;P1;durP2;ratioP2;P2;SDS_P1;SDS_P2;PMS_P1;PMS_P2;Temp;Humidity;BMP_temperature;BMP_pressure;BME280_temperature;BME280_humidity;BME280_pressure;Samples;Min_cycle;Max_cycle;Signal;HPM_P1;HPM_P2
2021/06/27 00:01:12;;;;;;;14.97;11.70;;;21.10;68.00;;;;;;5077148;28;20033;-81
2021/06/27 00:03:37;;;;;;;13.02;11.63;;;21.10;68.20;;;;;;5076867;28;20111;-82
2021/06/27 00:06:05;;;;;;;16.63;12.60;;;21.00;68.30;;;;;;5076649;28;20116;-81
2021/06/27 00:08:30;;;;;;;14.23;12.02;;;21.00;68.60;;;;;;5077073;28;20520;-82
2021/06/27 00:10:59;;;;;;;13.27;11.45;;;21.00;68.70;;;;;;5076816;28;20032;-81
2021/06/27 00:13:30;;;;;;;15.05;12.77;;;20.90;69.00;;;;;;5061833;28;20044;-81
2021/06/27 00:15:57;;;;;;;13.00;11.70;;;20.90;69.30;;;;;;5076906;28;20024;-83
2021/06/27 00:18:25;;;;;;;15.75;12.27;;;20.80;70.00;;;;;;5075378;28;20035;-81
2021/06/27 00:20:53;;;;;;;16.13;12.93;;;20.80;69.60;;;;;;5073865;28;20032;-82
2021/06/27 00:23:22;;;;;;;13.75;12.38;;;20.70;69.90;;;;;;5073482;28;20025;-82
2021/06/27 00:25:48;;;;;;;15.98;14.27;;;20.70;70.10;;;;;;5075885;28;20473;-82
2021/06/27 00:28:14;;;;;;;16.58;14.02;;;20.60;70.20;;;;;;5076540;28;20044;-81
2021/06/27 00:30:43;;;;;;;15.80;13.13;;;20.60;70.40;;;;;;5057222;28;20507;-81
2021/06/27 00:33:09;;;;;;;14.57;13.07;;;20.50;70.70;;;;;;5062300;28;20028;-82
2021/06/27 00:35:36;;;;;;;17.08;14.13;;;20.50;70.80;;;;;;5075790;28;20561;-82
2021/06/27 00:38:03;;;;;;;17.38;14.05;;;20.50;70.80;;;;;;5058491;28;20063;-81
2021/06/27 00:40:29;;;;;;;15.95;13.88;;;20.50;71.00;;;;;;5069745;28;20021;-81
2021/06/27 00:42:55;;;;;;;19.55;14.95;;;20.50;71.10;;;;;;5055761;28;20032;-82
2021/06/27 00:45:24;;;;;;;20.05;13.90;;;20.40;71.10;;;;;;5071571;28;20036;-81
2021/06/27 00:47:50;;;;;;;20.98;14.05;;;20.40;71.30;;;;;;5065339;28;20037;-82
2021/06/27 00:50:19;;;;;;;19.55;14.90;;;20.40;71.40;;;;;;5055817;28;20033;-82
2021/06/27 00:52:45;;;;;;;16.98;14.77;;;20.30;71.60;;;;;;5055773;28;20025;-82
2021/06/27 00:55:12;;;;;;;17.00;13.77;;;20.30;71.70;;;;;;5054970;28;20162;-82
2021/06/27 00:57:40;;;;;;;17.85;14.98;;;20.30;72.00;;;;;;5056118;28;20040;-82
2021/06/27 01:00:09;;;;;;;16.85;14.65;;;20.30;72.10;;;;;;5057555;28;20063;-82
2021/06/27 01:02:35;;;;;;;15.88;14.25;;;20.20;72.20;;;;;;5058230;28;20098;-82
2021/06/27 01:05:04;;;;;;;15.75;13.52;;;20.20;72.30;;;;;;5055625;28;20152;-82
2021/06/27 01:07:30;;;;;;;15.98;13.35;;;20.20;72.40;;;;;;5071518;28;20485;-82
2021/06/27 01:09:55;;;;;;;16.30;13.95;;;20.20;72.50;;;;;;5075801;28;20033;-82
2021/06/27 01:12:22;;;;;;;16.63;14.05;;;20.20;72.70;;;;;;5073699;28;20469;-81
2021/06/27 01:14:48;;;;;;;16.05;12.95;;;20.20;72.90;;;;;;5066062;28;20029;-82
2021/06/27 01:17:14;;;;;;;15.02;13.02;;;20.10;72.90;;;;;;5055481;28;20037;-82
2021/06/27 01:19:40;;;;;;;15.70;13.80;;;20.10;73.00;;;;;;5055350;28;20039;-82
2021/06/27 01:22:05;;;;;;;17.50;14.98;;;20.10;73.10;;;;;;5054227;28;20047;-82
2021/06/27 01:24:31;;;;;;;17.33;14.90;;;20.10;73.20;;;;;;5054370;28;20103;-82
2021/06/27 01:26:57;;;;;;;16.23;14.50;;;20.00;73.40;;;;;;5054057;28;20565;-82
2021/06/27 01:29:23;;;;;;;16.30;14.55;;;20.00;73.40;;;;;;5054255;28;20025;-82
2021/06/27 01:31:49;;;;;;;16.83;15.10;;;19.90;73.60;;;;;;5053908;28;20032;-82
2021/06/27 01:34:15;;;;;;;15.68;13.95;;;19.90;73.90;;;;;;5060765;28;20028;-82
2021/06/27 01:36:40;;;;;;;14.85;13.23;;;19.80;74.10;;;;;;5074169;28;20115;-82
2021/06/27 01:39:07;;;;;;;14.85;13.25;;;19.80;74.30;;;;;;5075194;28;20032;-82
2021/06/27 01:41:32;;;;;;;21.80;16.13;;;19.80;74.40;;;;;;5075312;28;20458;-82
2021/06/27 01:43:58;;;;;;;18.15;15.70;;;19.70;74.50;;;;;;5074940;28;20048;-81
2021/06/27 01:46:23;;;;;;;19.83;14.70;;;19.70;74.70;;;;;;5053358;28;20033;-81
2021/06/27 01:48:49;;;;;;;15.18;13.38;;;19.70;75.00;;;;;;5054908;28;20070;-82
2021/06/27 01:51:15;;;;;;;20.30;14.88;;;19.70;75.00;;;;;;5068928;28;20413;-82
2021/06/27 01:53:41;;;;;;;16.13;14.45;;;19.60;75.10;;;;;;5070457;28;20025;-82
2021/06/27 01:56:08;;;;;;;17.25;14.95;;;19.60;75.20;;;;;;5070286;28;20037;-82
2021/06/27 01:58:50;;;;;;;16.30;14.60;;;19.60;75.30;;;;;;5077623;28;20376;-82
2021/06/27 02:01:17;;;;;;;19.30;15.65;;;19.50;75.60;;;;;;5081068;28;20503;-82
2021/06/27 02:03:44;;;;;;;17.90;14.77;;;19.50;75.50;;;;;;5057176;28;20470;-81
2021/06/27 02:06:10;;;;;;;20.58;15.40;;;19.40;75.80;;;;;;5054540;28;20500;-82
2021/06/27 02:08:38;;;;;;;18.65;15.32;;;19.40;75.80;;;;;;5036653;28;20029;-82
2021/06/27 02:11:06;;;;;;;18.27;15.13;;;19.40;76.00;;;;;;5054692;28;20029;-82
2021/06/27 02:13:33;;;;;;;17.08;15.07;;;19.40;76.00;;;;;;5054806;28;20608;-81
2021/06/27 02:15:59;;;;;;;18.23;15.15;;;19.40;76.10;;;;;;5074293;28;20393;-82
2021/06/27 02:18:31;;;;;;;21.88;15.00;;;19.30;76.20;;;;;;5073124;28;20028;-82
2021/06/27 02:21:01;;;;;;;15.70;14.05;;;19.30;76.30;;;;;;5073557;28;20055;-82
2021/06/27 02:23:27;;;;;;;16.50;14.30;;;19.30;76.50;;;;;;5074156;28;20028;-82
2021/06/27 02:25:53;;;;;;;16.30;14.38;;;19.30;76.70;;;;;;5061314;28;20485;-82
2021/06/27 02:28:19;;;;;;;16.95;15.00;;;19.20;76.80;;;;;;5064142;28;20029;-82
2021/06/27 02:30:44;;;;;;;20.48;16.55;;;19.20;77.00;;;;;;5053117;28;20044;-82
2021/06/27 02:33:10;;;;;;;17.10;15.18;;;19.10;77.10;;;;;;5063945;28;20033;-82
2021/06/27 02:35:37;;;;;;;18.00;16.15;;;19.10;77.90;;;;;;5065522;28;20028;-82
2021/06/27 02:38:03;;;;;;;20.85;15.90;;;19.10;77.40;;;;;;5073936;28;20052;-82
2021/06/27 02:40:29;;;;;;;17.85;15.45;;;19.10;77.50;;;;;;5069196;28;20027;-81
2021/06/27 02:42:55;;;;;;;19.77;15.30;;;19.10;77.60;;;;;;5069797;28;20538;-82
2021/06/27 02:45:21;;;;;;;19.17;15.35;;;19.00;77.70;;;;;;5066851;28;20036;-82
2021/06/27 02:47:46;;;;;;;20.80;16.15;;;19.00;77.80;;;;;;5053997;28;20559;-81
2021/06/27 02:50:14;;;;;;;18.77;15.15;;;19.00;77.70;;;;;;5052191;28;20041;-82
2021/06/27 02:52:40;;;;;;;20.00;15.65;;;19.00;77.90;;;;;;5057091;28;20021;-81
2021/06/27 02:55:08;;;;;;;19.10;15.93;;;19.00;78.00;;;;;;5063043;28;20037;-81
2021/06/27 02:57:34;;;;;;;18.92;15.55;;;18.90;78.10;;;;;;5056743;28;20017;-81
2021/06/27 03:00:00;;;;;;;17.38;15.10;;;18.90;78.20;;;;;;5059182;28;20031;-81
2021/06/27 03:02:25;;;;;;;17.77;14.65;;;18.90;78.30;;;;;;5053603;28;20373;-82
2021/06/27 03:04:51;;;;;;;17.92;15.05;;;18.90;78.40;;;;;;5060049;28;20074;-82
2021/06/27 03:07:16;;;;;;;21.90;16.58;;;18.90;78.40;;;;;;5053341;28;20025;-81
2021/06/27 03:09:42;;;;;;;18.48;14.57;;;18.80;78.50;;;;;;5086506;28;20107;-82
2021/06/27 03:12:11;;;;;;;19.85;15.65;;;18.80;78.60;;;;;;5075525;28;20032;-81
2021/06/27 03:14:36;;;;;;;;;;;18.80;78.60;;;;;;5053910;28;20024;-81
2021/06/27 03:17:02;;;;;;;18.38;15.02;;;18.80;78.20;;;;;;5062494;28;19908;-81
2021/06/27 03:19:28;;;;;;;20.98;15.88;;;18.80;78.50;;;;;;5054989;28;20025;-82
2021/06/27 03:21:53;;;;;;;16.52;14.45;;;18.80;78.60;;;;;;5056209;28;20161;-81
2021/06/27 03:24:19;;;;;;;17.52;15.45;;;18.70;78.70;;;;;;5074965;28;20029;-81
2021/06/27 03:26:45;;;;;;;19.92;15.70;;;18.80;78.90;;;;;;5074085;28;20036;-80
2021/06/27 03:29:10;;;;;;;18.30;16.35;;;18.80;78.90;;;;;;5072315;28;20028;-81
2021/06/27 03:31:36;;;;;;;19.20;16.45;;;18.80;79.60;;;;;;5054471;28;20029;-82
2021/06/27 03:34:02;;;;;;;17.63;15.32;;;18.80;79.00;;;;;;5062695;28;20029;-82
2021/06/27 03:36:27;;;;;;;17.65;14.45;;;18.80;79.00;;;;;;5065535;28;20504;-82
2021/06/27 03:41:23;;;;;;;18.45;14.52;;;18.80;79.00;;;;;;5060730;28;20355;-82
2021/06/27 03:43:49;;;;;;;21.15;15.57;;;18.80;79.00;;;;;;5060205;28;20036;-81
2021/06/27 03:46:15;;;;;;;20.33;15.15;;;18.80;79.00;;;;;;5066945;28;21717;-82
2021/06/27 03:48:41;;;;;;;20.10;16.30;;;18.80;79.00;;;;;;5062835;28;20048;-82
2021/06/27 03:51:07;;;;;;;18.10;14.32;;;18.80;79.10;;;;;;5063518;28;20072;-81
2021/06/27 03:53:33;;;;;;;19.27;15.30;;;18.90;79.60;;;;;;5054609;28;20034;-82
2021/06/27 03:55:59;;;;;;;19.95;16.17;;;18.90;78.90;;;;;;5055433;28;20028;-81
2021/06/27 03:58:25;;;;;;;29.63;16.17;;;18.90;78.90;;;;;;5060566;28;20488;-77
2021/06/27 04:00:51;;;;;;;20.02;16.42;;;18.90;79.00;;;;;;5050214;28;20116;-77
2021/06/27 04:03:17;;;;;;;21.15;14.43;;;18.90;79.10;;;;;;5051784;28;20120;-77
2021/06/27 04:05:43;;;;;;;19.88;16.17;;;18.90;79.10;;;;;;5053617;28;21984;-77
2021/06/27 04:08:09;;;;;;;18.02;15.18;;;18.90;79.20;;;;;;5062477;28;20104;-77
2021/06/27 04:10:34;;;;;;;16.50;14.75;;;18.80;79.20;;;;;;5059326;28;20053;-77
2021/06/27 04:13:00;;;;;;;19.40;15.45;;;18.90;79.50;;;;;;5055776;28;20113;-77
2021/06/27 04:15:26;;;;;;;19.13;14.40;;;18.90;79.50;;;;;;5051105;28;20064;-77
2021/06/27 04:17:51;;;;;;;25.42;15.27;;;18.90;79.40;;;;;;5064700;28;20047;-77
2021/06/27 04:20:17;;;;;;;18.73;14.38;;;18.90;79.20;;;;;;5060784;28;20040;-77
2021/06/27 04:22:43;;;;;;;17.30;15.07;;;19.00;79.30;;;;;;5059155;28;20044;-77
2021/06/27 04:25:09;;;;;;;15.73;14.05;;;19.00;79.30;;;;;;5052458;28;20115;-77
2021/06/27 04:27:35;;;;;;;15.75;13.95;;;19.00;79.20;;;;;;5068660;28;20031;-77
2021/06/27 04:30:02;;;;;;;21.90;15.70;;;19.00;79.20;;;;;;5074297;28;20119;-78
2021/06/27 04:32:28;;;;;;;16.55;14.38;;;19.00;79.50;;;;;;5075503;28;20024;-78
2021/06/27 04:34:53;;;;;;;17.77;14.45;;;19.00;79.50;;;;;;5057191;28;20428;-78
2021/06/27 04:37:19;;;;;;;17.95;14.48;;;19.00;79.50;;;;;;5059852;28;20037;-78
2021/06/27 04:39:45;;;;;;;17.52;14.23;;;19.10;79.60;;;;;;5063007;28;20067;-78
2021/06/27 04:42:11;;;;;;;17.50;14.10;;;19.00;79.50;;;;;;5072728;28;20451;-78
2021/06/27 04:44:37;;;;;;;18.38;15.20;;;19.00;79.50;;;;;;5072939;28;20052;-77
2021/06/27 04:47:03;;;;;;;16.95;13.80;;;19.10;79.50;;;;;;5053933;28;20056;-78
2021/06/27 04:49:28;;;;;;;23.40;15.18;;;19.10;79.60;;;;;;5069754;28;20062;-78
2021/06/27 04:51:54;;;;;;;22.83;15.00;;;19.10;79.60;;;;;;5075541;28;20029;-78
2021/06/27 04:54:19;;;;;;;16.15;14.32;;;19.10;79.60;;;;;;5082033;28;20028;-78
2021/06/27 04:56:45;;;;;;;20.48;15.57;;;19.10;79.60;;;;;;5066733;28;20119;-78
2021/06/27 04:59:11;;;;;;;16.67;14.43;;;19.10;79.60;;;;;;5067699;28;20393;-78
2021/06/27 05:01:37;;;;;;;16.58;13.45;;;19.10;79.60;;;;;;5062999;28;20428;-78
2021/06/27 05:04:02;;;;;;;16.88;13.57;;;19.20;79.80;;;;;;5054086;28;20428;-78
2021/06/27 05:06:28;;;;;;;20.10;16.02;;;19.20;79.60;;;;;;5061608;28;20033;-78
2021/06/27 05:08:54;;;;;;;18.15;14.13;;;19.20;79.60;;;;;;5077955;28;20020;-78
2021/06/27 05:11:19;;;;;;;20.75;15.13;;;19.20;79.60;;;;;;5037129;28;20074;-78
2021/06/27 05:13:46;;;;;;;23.45;16.30;;;19.30;79.50;;;;;;5065323;28;20105;-78
2021/06/27 05:16:12;;;;;;;18.67;15.15;;;19.30;79.40;;;;;;5075004;28;20028;-78
2021/06/27 05:18:37;;;;;;;16.38;14.55;;;19.30;79.40;;;;;;5065991;28;20481;-78
2021/06/27 05:21:03;;;;;;;20.75;15.15;;;19.30;79.30;;;;;;5068086;28;20489;-77
2021/06/27 05:23:29;;;;;;;22.10;15.50;;;19.40;79.30;;;;;;5066225;28;20399;-77
2021/06/27 05:25:55;;;;;;;22.88;15.75;;;19.40;79.20;;;;;;5064762;28;20119;-78
2021/06/27 05:28:20;;;;;;;17.33;14.98;;;19.40;79.20;;;;;;5067944;28;20112;-77
2021/06/27 05:30:46;;;;;;;18.85;15.23;;;19.40;79.00;;;;;;5054206;28;20029;-78
2021/06/27 05:33:12;;;;;;;24.58;15.73;;;19.40;78.90;;;;;;5073994;28;20052;-78
2021/06/27 05:35:38;;;;;;;18.70;15.05;;;19.50;78.90;;;;;;5068943;28;20086;-77
2021/06/27 05:38:03;;;;;;;18.98;16.00;;;19.50;79.00;;;;;;5061717;28;20119;-77
2021/06/27 05:40:29;;;;;;;18.05;14.75;;;19.60;79.10;;;;;;5055877;28;20112;-78
2021/06/27 05:42:56;;;;;;;18.27;14.60;;;19.60;78.80;;;;;;5066957;28;20062;-78
2021/06/27 05:45:21;;;;;;;17.08;14.13;;;19.80;78.30;;;;;;5070862;28;20507;-78
2021/06/27 05:47:47;;;;;;;17.40;14.07;;;19.80;77.80;;;;;;5063592;28;20135;-78
2021/06/27 05:50:13;;;;;;;15.93;13.75;;;19.90;77.70;;;;;;5064605;28;20442;-78
2021/06/27 05:52:39;;;;;;;16.85;13.13;;;20.10;77.30;;;;;;5073565;28;20032;-78
2021/06/27 05:55:05;;;;;;;18.60;15.05;;;20.10;77.60;;;;;;5069047;28;20484;-77
2021/06/27 05:57:31;;;;;;;16.70;13.80;;;20.20;76.60;;;;;;5053464;28;20465;-77
2021/06/27 05:59:57;;;;;;;17.40;13.02;;;20.30;76.40;;;;;;5075424;28;20021;-77
2021/06/27 06:02:22;;;;;;;19.02;12.80;;;20.40;75.90;;;;;;5056608;28;20036;-78
2021/06/27 06:04:48;;;;;;;17.10;12.60;;;20.50;75.50;;;;;;5070222;28;20028;-78
2021/06/27 06:07:14;;;;;;;17.33;12.43;;;20.60;75.50;;;;;;5073004;28;20030;-78
2021/06/27 06:09:39;;;;;;;19.45;11.48;;;20.70;75.10;;;;;;5052975;28;20029;-78
2021/06/27 06:12:05;;;;;;;14.13;11.45;;;20.90;74.40;;;;;;5053125;28;20036;-78
2021/06/27 06:14:32;;;;;;;17.55;11.35;;;20.90;74.10;;;;;;5069184;28;20028;-78
2021/06/27 06:16:57;;;;;;;16.92;11.70;;;21.00;73.70;;;;;;5068125;28;20024;-78
2021/06/27 06:19:24;;;;;;;14.60;10.45;;;21.10;73.30;;;;;;5065457;28;20401;-78
2021/06/27 06:21:50;;;;;;;11.68;10.20;;;21.20;73.50;;;;;;5053052;28;20033;-78
2021/06/27 06:24:17;;;;;;;12.65;9.93;;;21.20;73.40;;;;;;5069860;28;20031;-78
2021/06/27 06:26:44;;;;;;;11.40;9.82;;;21.30;72.60;;;;;;5072499;28;20025;-78
2021/06/27 06:29:09;;;;;;;14.73;9.25;;;21.40;71.80;;;;;;5071373;28;20473;-78
2021/06/27 06:31:35;;;;;;;10.77;9.15;;;21.50;71.40;;;;;;5068674;28;20078;-78
2021/06/27 06:34:01;;;;;;;13.40;10.48;;;21.60;71.10;;;;;;5073736;28;20056;-78
2021/06/27 06:36:26;;;;;;;10.77;9.38;;;21.80;71.40;;;;;;5062420;28;20036;-77
2021/06/27 06:38:52;;;;;;;11.88;9.68;;;21.90;70.00;;;;;;5065525;28;20032;-77
2021/06/27 06:41:18;;;;;;;13.68;9.38;;;22.00;69.60;;;;;;5073296;28;20033;-78
2021/06/27 06:43:44;;;;;;;10.25;9.02;;;22.20;69.40;;;;;;5053459;28;20035;-77
2021/06/27 06:46:10;;;;;;;10.00;8.73;;;22.30;68.90;;;;;;5062150;28;20036;-77
2021/06/27 06:48:36;;;;;;;11.63;8.40;;;22.40;68.50;;;;;;5072161;28;20516;-77
2021/06/27 06:51:02;;;;;;;10.82;8.55;;;22.60;68.00;;;;;;5054378;28;20037;-76
2021/06/27 06:53:28;;;;;;;11.63;8.90;;;22.70;67.70;;;;;;5061091;28;20031;-77
2021/06/27 06:55:56;;;;;;;12.40;9.45;;;22.80;67.10;;;;;;5054484;28;20025;-77
2021/06/27 06:58:23;;;;;;;;;;;22.90;66.30;;;;;;5060902;28;20085;-77
2021/06/27 07:00:49;;;;;;;8.75;7.88;;;23.10;66.40;;;;;;5056493;28;20007;-77
2021/06/27 07:03:15;;;;;;;10.48;9.05;;;23.20;66.20;;;;;;5053454;28;20199;-77
2021/06/27 07:05:40;;;;;;;10.45;9.02;;;23.30;65.80;;;;;;5071292;28;20028;-77
2021/06/27 07:08:06;;;;;;;10.10;8.73;;;23.40;65.60;;;;;;5054737;28;20390;-76
2021/06/27 07:10:32;;;;;;;9.88;8.80;;;23.60;65.10;;;;;;5060536;28;20029;-76
2021/06/27 07:12:58;;;;;;;13.45;8.25;;;23.70;64.00;;;;;;5057984;28;20489;-76
2021/06/27 07:15:23;;;;;;;9.13;8.02;;;23.80;63.90;;;;;;5054026;28;20074;-76
2021/06/27 07:17:49;;;;;;;10.18;8.27;;;23.70;63.80;;;;;;5061032;28;20429;-77
2021/06/27 07:20:15;;;;;;;14.75;8.48;;;23.80;63.60;;;;;;5060509;28;20028;-76
2021/06/27 07:22:41;;;;;;;9.57;7.93;;;23.90;63.50;;;;;;5071941;28;20029;-76
2021/06/27 07:25:08;;;;;;;8.75;7.85;;;24.00;63.00;;;;;;5071860;28;20477;-76
2021/06/27 07:27:34;;;;;;;12.40;8.68;;;24.10;62.70;;;;;;5063355;28;20041;-77
2021/06/27 07:30:00;;;;;;;9.32;8.38;;;24.20;62.10;;;;;;5077821;28;20492;-76
2021/06/27 07:32:26;;;;;;;8.20;7.32;;;24.30;61.90;;;;;;5062050;28;20033;-76
2021/06/27 07:34:52;;;;;;;11.40;7.63;;;24.30;62.00;;;;;;5066803;28;20025;-76
2021/06/27 07:37:17;;;;;;;11.35;7.13;;;24.30;62.10;;;;;;5062303;28;20036;-77
2021/06/27 07:39:43;;;;;;;8.18;7.38;;;24.30;62.00;;;;;;5075256;28;20543;-74
2021/06/27 07:42:09;;;;;;;9.27;7.13;;;24.30;61.90;;;;;;5076949;28;20024;-74
2021/06/27 07:44:35;;;;;;;8.85;7.40;;;24.30;61.80;;;;;;5052210;28;20169;-74
2021/06/27 07:47:00;;;;;;;8.07;7.28;;;24.30;61.60;;;;;;5061878;28;20045;-74
2021/06/27 07:49:26;;;;;;;9.13;8.20;;;24.40;61.90;;;;;;5065149;28;20546;-74
2021/06/27 07:51:51;;;;;;;9.65;7.53;;;24.50;61.10;;;;;;5063315;28;20111;-74
2021/06/27 07:54:17;;;;;;;8.90;8.00;;;24.60;60.60;;;;;;5065295;28;20452;-74
2021/06/27 07:56:43;;;;;;;8.20;7.50;;;24.70;60.20;;;;;;5060359;28;20033;-74
2021/06/27 07:59:09;;;;;;;8.38;7.25;;;24.80;60.30;;;;;;5067309;28;20033;-74
2021/06/27 08:01:35;;;;;;;8.93;7.95;;;25.00;60.30;;;;;;5065299;28;20025;-74
2021/06/27 08:04:01;;;;;;;8.05;7.22;;;25.10;60.20;;;;;;5056559;28;20500;-74
2021/06/27 08:06:27;;;;;;;10.30;7.88;;;25.20;60.10;;;;;;5060706;28;20103;-74
2021/06/27 08:08:52;;;;;;;9.43;7.65;;;25.20;59.80;;;;;;5077043;28;20090;-74
2021/06/27 08:11:18;;;;;;;10.15;7.85;;;25.30;59.90;;;;;;5068823;28;20021;-74
2021/06/27 08:13:44;;;;;;;10.38;7.55;;;25.30;59.90;;;;;;5067611;28;20035;-75
2021/06/27 08:16:09;;;;;;;8.48;7.60;;;25.30;60.10;;;;;;5066025;28;20040;-75
2021/06/27 08:18:35;;;;;;;9.95;7.00;;;25.40;58.90;;;;;;5065484;28;20040;-75
2021/06/27 08:21:01;;;;;;;8.07;6.47;;;25.40;59.10;;;;;;5064699;28;20087;-76
2021/06/27 08:23:26;;;;;;;7.68;6.95;;;25.40;59.90;;;;;;5096745;28;20064;-77
2021/06/27 08:25:52;;;;;;;7.47;6.70;;;25.50;59.60;;;;;;5076216;28;20068;-76
2021/06/27 08:28:17;;;;;;;11.18;7.03;;;25.60;59.70;;;;;;5056134;28;20109;-75
2021/06/27 08:30:43;;;;;;;8.90;7.60;;;25.80;59.20;;;;;;5061015;28;20027;-76
2021/06/27 08:33:09;;;;;;;8.55;7.25;;;25.80;57.90;;;;;;5070655;28;20475;-77
2021/06/27 08:35:35;;;;;;;6.90;6.30;;;25.60;58.10;;;;;;5076198;28;20025;-79
2021/06/27 08:38:01;;;;;;;8.80;7.35;;;25.40;58.50;;;;;;5075928;28;20032;-79
2021/06/27 08:40:27;;;;;;;7.53;6.82;;;25.40;59.40;;;;;;5074651;28;20032;-80
2021/06/27 08:42:53;;;;;;;7.50;6.57;;;25.30;59.10;;;;;;5058287;28;20114;-79
2021/06/27 08:45:19;;;;;;;10.13;6.88;;;25.40;59.10;;;;;;5074552;28;20033;-80
2021/06/27 08:47:46;;;;;;;7.88;7.03;;;25.50;59.40;;;;;;5074626;28;20055;-80
2021/06/27 08:50:16;;;;;;;6.97;6.38;;;25.60;59.10;;;;;;5074528;28;20033;-79
2021/06/27 08:52:43;;;;;;;8.52;6.72;;;25.80;58.70;;;;;;5093123;28;20103;-79
2021/06/27 08:55:09;;;;;;;6.97;6.22;;;26.00;58.80;;;;;;5094553;28;20494;-79
2021/06/27 08:57:35;;;;;;;7.10;6.40;;;26.20;58.00;;;;;;5094617;28;20063;-79
2021/06/27 09:00:03;;;;;;;10.50;6.28;;;26.40;56.80;;;;;;5095886;28;20448;-79
2021/06/27 09:02:30;;;;;;;6.40;5.80;;;26.60;56.10;;;;;;5094792;28;20398;-79
2021/06/27 09:04:55;;;;;;;8.00;5.93;;;26.80;56.20;;;;;;5094839;28;20054;-79
2021/06/27 09:07:35;;;;;;;8.43;6.80;;;27.10;55.90;;;;;;5096191;28;20452;-79
2021/06/27 09:10:21;;;;;;;9.77;6.93;;;27.30;54.90;;;;;;5073293;28;20036;-80
2021/06/27 09:12:56;;;;;;;8.13;6.55;;;27.10;54.90;;;;;;5076127;28;20029;-79
2021/06/27 09:15:42;;;;;;;7.82;7.05;;;27.00;56.10;;;;;;5075617;28;20500;-78
2021/06/27 09:18:14;;;;;;;7.60;6.50;;;27.00;56.20;;;;;;5074688;28;20060;-79
2021/06/27 09:20:51;;;;;;;9.52;6.70;;;27.00;56.10;;;;;;5074089;28;20027;-81
2021/06/27 09:23:20;;;;;;;8.43;7.22;;;27.10;57.10;;;;;;5074284;28;20031;-82
2021/06/27 09:25:46;;;;;;;7.43;6.72;;;27.10;56.10;;;;;;5073941;28;20144;-81
2021/06/27 09:28:15;;;;;;;8.10;6.43;;;27.20;56.10;;;;;;5075309;28;20032;-83
2021/06/27 09:30:41;;;;;;;6.97;5.80;;;27.40;55.90;;;;;;5062238;28;20477;-81
2021/06/27 09:33:16;;;;;;;6.50;5.90;;;27.60;55.90;;;;;;5063108;28;20082;-81
2021/06/27 09:35:45;;;;;;;7.45;5.95;;;27.90;54.10;;;;;;5073180;28;20028;-81
2021/06/27 09:38:29;;;;;;;9.30;6.85;;;27.90;53.60;;;;;;5074093;28;20075;-81
2021/06/27 09:41:14;;;;;;;9.32;6.00;;;28.10;53.90;;;;;;5094069;28;20026;-81
2021/06/27 09:43:47;;;;;;;5.70;5.10;;;28.10;53.30;;;;;;5095494;28;20468;-81
2021/06/27 09:46:12;;;;;;;6.65;5.43;;;28.10;53.60;;;;;;5095086;28;20032;-82
2021/06/27 09:48:58;;;;;;;6.93;5.22;;;28.10;52.60;;;;;;5069381;28;20502;-82
2021/06/27 09:51:27;;;;;;;5.72;5.22;;;28.00;52.00;;;;;;5070443;28;20071;-81
2021/06/27 09:53:53;;;;;;;5.50;4.80;;;27.90;51.40;;;;;;5053368;28;20021;-81
2021/06/27 09:56:21;;;;;;;6.05;4.15;;;27.80;51.00;;;;;;5065878;28;20050;-80
2021/06/27 09:58:57;;;;;;;4.57;4.28;;;27.80;50.60;;;;;;5073826;28;20560;-80
2021/06/27 10:01:25;;;;;;;5.22;4.50;;;27.90;51.90;;;;;;5074728;28;20028;-80
2021/06/27 10:03:54;;;;;;;5.25;4.72;;;28.00;51.80;;;;;;5074797;28;20036;-80
2021/06/27 10:06:24;;;;;;;6.20;4.97;;;28.20;51.40;;;;;;5058195;28;20061;-84
2021/06/27 10:08:50;;;;;;;5.82;5.18;;;28.30;51.60;;;;;;5043789;28;20055;-82
2021/06/27 10:11:22;;;;;;;7.70;4.80;;;28.40;52.30;;;;;;5070079;28;20068;-82
2021/06/27 10:13:49;;;;;;;5.97;5.38;;;28.60;51.70;;;;;;5082555;28;20444;-82
2021/06/27 10:16:36;;;;;;;6.93;5.30;;;28.60;50.80;;;;;;5074212;28;20036;-82
2021/06/27 10:19:02;;;;;;;5.25;4.70;;;28.50;51.00;;;;;;5074243;28;20112;-82
2021/06/27 10:21:30;;;;;;;5.25;4.70;;;28.40;51.70;;;;;;5073236;28;20085;-82
2021/06/27 10:23:57;;;;;;;4.35;3.95;;;28.40;51.40;;;;;;5052704;28;20089;-82
2021/06/27 10:26:25;;;;;;;4.38;4.05;;;28.40;50.40;;;;;;5068915;28;20032;-80
2021/06/27 10:28:52;;;;;;;5.30;4.80;;;28.30;50.30;;;;;;5059392;28;20025;-80
2021/06/27 10:31:22;;;;;;;4.72;4.28;;;28.30;49.80;;;;;;5053722;28;20362;-80
2021/06/27 10:33:48;;;;;;;4.63;4.22;;;28.40;49.90;;;;;;5053022;28;20504;-80
2021/06/27 10:36:23;;;;;;;4.72;4.28;;;28.30;49.50;;;;;;5071745;28;20469;-80
2021/06/27 10:38:49;;;;;;;4.45;4.05;;;28.40;48.70;;;;;;5067311;28;20025;-79
2021/06/27 10:41:15;;;;;;;4.32;4.03;;;28.30;49.40;;;;;;5053921;28;20056;-79
2021/06/27 10:43:56;;;;;;;6.05;4.07;;;28.40;48.70;;;;;;5053776;28;20485;-79
2021/06/27 10:46:42;;;;;;;4.43;4.05;;;28.60;48.80;;;;;;5072958;28;20110;-79
2021/06/27 10:49:27;;;;;;;4.03;3.67;;;28.80;48.80;;;;;;5071519;28;20049;-79
2021/06/27 10:52:00;;;;;;;4.75;4.20;;;29.00;47.80;;;;;;5074070;28;20016;-79
2021/06/27 10:54:30;;;;;;;5.20;3.80;;;29.10;48.30;;;;;;5072545;28;20020;-80
2021/06/27 10:57:00;;;;;;;4.20;3.83;;;29.30;48.50;;;;;;5073596;28;20036;-81
2021/06/27 10:59:38;;;;;;;4.05;3.65;;;29.50;48.10;;;;;;5072407;28;20024;-81
2021/06/27 11:02:18;;;;;;;5.90;4.20;;;29.60;46.60;;;;;;5072422;28;20036;-81
2021/06/27 11:04:49;;;;;;;4.47;4.05;;;29.70;46.40;;;;;;5073726;28;20029;-81
2021/06/27 11:07:34;;;;;;;4.43;3.83;;;29.70;46.30;;;;;;5067616;28;20033;-81
2021/06/27 11:10:17;;;;;;;4.65;3.83;;;29.80;46.40;;;;;;5053604;28;20024;-81
2021/06/27 11:12:58;;;;;;;4.25;3.85;;;29.90;46.10;;;;;;5052131;28;20042;-81
2021/06/27 11:15:27;;;;;;;5.80;4.00;;;29.90;45.50;;;;;;5066397;28;20044;-81
2021/06/27 11:17:54;;;;;;;4.25;3.83;;;29.90;46.20;;;;;;5073520;28;20073;-82
2021/06/27 11:20:20;;;;;;;5.28;4.60;;;29.90;46.60;;;;;;5073434;28;20031;-82
2021/06/27 11:22:56;;;;;;;4.68;4.28;;;29.90;46.20;;;;;;5072189;28;20020;-82
2021/06/27 11:25:40;;;;;;;4.38;3.97;;;29.90;46.90;;;;;;5072117;28;20035;-82
2021/06/27 11:28:18;;;;;;;4.45;4.07;;;29.90;46.80;;;;;;5072098;28;20048;-82
2021/06/27 11:30:44;;;;;;;4.38;3.97;;;30.00;47.10;;;;;;5072142;28;20013;-82
2021/06/27 11:33:14;;;;;;;5.25;4.75;;;30.10;47.50;;;;;;5073316;28;20021;-81
2021/06/27 11:35:43;;;;;;;5.18;4.05;;;30.20;47.60;;;;;;5085458;28;20029;-81
2021/06/27 11:38:29;;;;;;;6.35;3.78;;;30.30;46.70;;;;;;5055712;28;20025;-81
2021/06/27 11:40:55;;;;;;;4.35;4.00;;;30.40;46.20;;;;;;5061951;28;20107;-82
2021/06/27 11:43:53;;;;;;;4.15;3.63;;;30.40;46.30;;;;;;5077212;28;20064;-81
2021/06/27 11:46:25;;;;;;;;;;;30.30;44.60;;;;;;5080199;28;20092;-82
2021/06/27 11:48:51;;;;;;;4.90;4.00;;;30.20;44.80;;;;;;5062808;28;19916;-81
2021/06/27 11:51:17;;;;;;;6.43;4.30;;;30.10;45.00;;;;;;5055819;28;20523;-82
2021/06/27 11:53:44;;;;;;;4.35;3.95;;;30.10;44.90;;;;;;5057479;28;20036;-82
2021/06/27 11:56:12;;;;;;;4.18;3.88;;;30.00;45.70;;;;;;5067804;28;20390;-82
2021/06/27 11:58:38;;;;;;;;;;;30.00;45.40;;;;;;5077072;28;20485;-81
2021/06/27 12:01:09;;;;;;;7.65;4.35;;;30.00;45.20;;;;;;5062114;28;19912;-81
2021/06/27 12:03:45;;;;;;;5.57;4.25;;;29.90;45.30;;;;;;5082310;28;20485;-81
2021/06/27 12:06:12;;;;;;;6.20;4.07;;;29.90;45.80;;;;;;5068034;28;20021;-82
2021/06/27 12:08:42;;;;;;;4.32;3.92;;;29.90;46.10;;;;;;5076938;28;20028;-81
2021/06/27 12:11:08;;;;;;;4.43;3.83;;;30.00;46.20;;;;;;5056144;28;20110;-82
2021/06/27 12:13:35;;;;;;;4.55;4.07;;;30.20;46.40;;;;;;5075659;28;20048;-82
2021/06/27 12:16:01;;;;;;;6.10;4.03;;;30.30;45.50;;;;;;5072275;28;21020;-82
2021/06/27 12:18:28;;;;;;;4.95;4.18;;;30.40;44.80;;;;;;5090164;28;20052;-82
2021/06/27 12:21:03;;;;;;;4.50;4.10;;;30.30;44.90;;;;;;5079032;28;20456;-82
2021/06/27 12:23:33;;;;;;;4.30;3.90;;;30.40;45.30;;;;;;5076697;28;20531;-82
2021/06/27 12:26:13;;;;;;;4.28;3.83;;;30.50;45.60;;;;;;5075287;28;20035;-82
2021/06/27 12:28:49;;;;;;;5.13;3.83;;;30.70;44.70;;;;;;5076370;28;20516;-83
2021/06/27 12:31:18;;;;;;;6.00;4.03;;;30.80;44.10;;;;;;5076482;28;20499;-84
2021/06/27 12:33:46;;;;;;;3.58;3.28;;;30.90;44.60;;;;;;5076112;28;20020;-83
2021/06/27 12:36:17;;;;;;;;;;;31.00;44.70;;;;;;5077277;28;20542;-83
2021/06/27 12:38:54;;;;;;;5.35;3.50;;;31.10;44.60;;;;;;5076452;28;19910;-83
2021/06/27 12:41:28;;;;;;;3.95;3.65;;;31.30;43.50;;;;;;5076262;28;20470;-83
2021/06/27 12:43:59;;;;;;;3.78;3.30;;;31.40;43.90;;;;;;5076401;28;20032;-83